createdAt,value
2018-07-22T00:02:23.337Z,20.40
2018-07-22T00:04:51.619Z,20.40
2018-07-22T00:07:19.813Z,20.50
2018-07-22T00:09:48.150Z,20.50
2018-07-22T00:12:16.408Z,20.30
2018-07-22T00:14:44.723Z,20.20
2018-07-22T00:17:12.946Z,20.20
2018-07-22T00:19:41.193Z,20.10
2018-07-22T00:22:09.625Z,20.00
2018-07-22T00:24:37.905Z,19.90
2018-07-22T00:27:06.224Z,20.00
2018-07-22T00:29:34.414Z,20.00
2018-07-22T00:32:02.787Z,19.90
2018-07-22T00:34:31.063Z,19.90
2018-07-22T00:39:27.075Z,19.70
2018-07-22T00:41:55.279Z,19.60
2018-07-22T00:44:23.694Z,19.70
2018-07-22T00:46:51.987Z,19.70
2018-07-22T00:49:20.371Z,19.60
2018-07-22T00:51:54.982Z,19.60
2018-07-22T00:54:23.284Z,19.70
2018-07-22T00:56:51.536Z,19.60
2018-07-22T00:59:19.826Z,19.50
2018-07-22T01:01:48.082Z,19.60
2018-07-22T01:04:16.309Z,19.50
2018-07-22T01:09:12.733Z,19.50
2018-07-22T01:11:41.031Z,19.40
2018-07-22T01:14:09.450Z,19.30
2018-07-22T01:16:37.857Z,19.20
2018-07-22T01:19:06.210Z,19.20
2018-07-22T01:21:34.440Z,19.20
2018-07-22T01:24:02.875Z,19.10
2018-07-22T01:26:31.179Z,19.10
2018-07-22T01:28:59.410Z,19.10
2018-07-22T01:31:27.798Z,19.10
2018-07-22T01:33:56.214Z,19.00
2018-07-22T01:36:24.548Z,18.90
2018-07-22T01:38:52.937Z,18.90
2018-07-22T01:41:21.207Z,18.90
2018-07-22T01:43:49.382Z,18.90
2018-07-22T01:46:17.725Z,18.80
2018-07-22T01:48:45.995Z,18.80
2018-07-22T01:51:20.910Z,18.80
2018-07-22T01:53:49.357Z,18.70
2018-07-22T01:56:17.636Z,18.80
2018-07-22T01:58:45.816Z,18.80
2018-07-22T02:01:14.219Z,18.80
2018-07-22T02:03:42.583Z,18.80
2018-07-22T02:06:10.832Z,18.60
2018-07-22T02:08:39.030Z,18.80
2018-07-22T02:11:07.394Z,18.80
2018-07-22T02:13:35.559Z,18.70
2018-07-22T02:16:04.178Z,18.70
2018-07-22T02:21:00.273Z,18.70
2018-07-22T02:23:28.474Z,18.80
2018-07-22T02:25:56.673Z,18.70
2018-07-22T02:28:24.936Z,18.60
2018-07-22T02:33:21.046Z,18.60
2018-07-22T02:35:49.257Z,18.60
2018-07-22T02:38:17.508Z,18.40
2018-07-22T02:40:45.886Z,18.40
2018-07-22T02:43:14.129Z,18.30
2018-07-22T02:45:42.377Z,18.40
2018-07-22T02:48:10.619Z,18.40
2018-07-22T02:50:38.820Z,18.30
2018-07-22T02:53:07.070Z,18.40
2018-07-22T02:55:35.301Z,18.40
2018-07-22T02:58:03.522Z,18.60
2018-07-22T03:00:31.691Z,18.60
2018-07-22T03:02:59.973Z,18.60
2018-07-22T03:05:28.327Z,18.50
2018-07-22T03:07:56.548Z,18.40
2018-07-22T03:10:24.958Z,18.20
2018-07-22T03:12:53.219Z,18.20
2018-07-22T03:15:21.560Z,18.20
2018-07-22T03:17:49.742Z,18.10
2018-07-22T03:20:18.009Z,17.90
2018-07-22T03:22:46.290Z,17.70
2018-07-22T03:25:14.529Z,17.70
2018-07-22T03:27:43.039Z,17.70
2018-07-22T03:30:11.281Z,17.70
2018-07-22T03:32:39.666Z,17.70
2018-07-22T03:35:07.877Z,17.70
2018-07-22T03:37:36.097Z,17.80
2018-07-22T03:40:04.730Z,17.60
2018-07-22T03:42:32.932Z,17.60
2018-07-22T03:45:01.244Z,17.50
2018-07-22T03:47:29.581Z,17.40
2018-07-22T03:49:57.721Z,17.50
2018-07-22T03:52:26.001Z,17.50
2018-07-22T03:54:54.238Z,17.60
2018-07-22T03:57:22.718Z,17.70
2018-07-22T03:59:50.986Z,17.70
2018-07-22T04:02:19.278Z,17.80
2018-07-22T04:04:47.482Z,17.70
2018-07-22T04:07:15.766Z,17.80
2018-07-22T04:09:43.959Z,17.70
2018-07-22T04:12:12.303Z,17.70
2018-07-22T04:14:40.642Z,17.70
2018-07-22T04:17:08.942Z,17.60
2018-07-22T04:19:37.232Z,17.60
2018-07-22T04:22:05.489Z,17.60
2018-07-22T04:24:33.695Z,17.70
2018-07-22T04:27:01.992Z,17.60
2018-07-22T04:29:30.283Z,17.70
2018-07-22T04:31:58.577Z,17.70
2018-07-22T04:34:26.787Z,17.70
2018-07-22T04:36:55.025Z,17.70
2018-07-22T04:39:23.389Z,17.70
2018-07-22T04:41:51.599Z,17.90
2018-07-22T04:44:19.836Z,18.00
2018-07-22T04:46:48.256Z,18.10
2018-07-22T04:49:16.671Z,18.40
2018-07-22T04:51:44.851Z,18.70
2018-07-22T04:54:13.095Z,19.20
2018-07-22T04:56:41.259Z,19.30
2018-07-22T04:59:09.448Z,19.50
2018-07-22T05:01:37.797Z,19.60
2018-07-22T05:04:06.026Z,19.40
2018-07-22T05:06:34.258Z,19.20
2018-07-22T05:09:02.551Z,19.00
2018-07-22T05:11:30.978Z,19.10
2018-07-22T05:13:59.333Z,19.40
2018-07-22T05:16:27.530Z,19.60
2018-07-22T05:18:55.830Z,20.10
2018-07-22T05:21:24.018Z,20.50
2018-07-22T05:23:52.236Z,20.60
2018-07-22T05:26:20.466Z,20.90
2018-07-22T05:28:48.658Z,20.80
2018-07-22T05:31:16.936Z,20.80
2018-07-22T05:33:45.298Z,20.50
2018-07-22T05:36:13.583Z,20.60
2018-07-22T05:38:42.016Z,20.60
2018-07-22T05:41:10.264Z,20.50
2018-07-22T05:43:38.599Z,20.60
2018-07-22T05:46:06.880Z,20.60
2018-07-22T05:48:35.558Z,20.60
2018-07-22T05:51:03.726Z,20.50
2018-07-22T05:53:32.218Z,20.90
2018-07-22T05:56:00.484Z,21.10
2018-07-22T05:58:28.656Z,21.40
2018-07-22T06:00:57.023Z,21.50
2018-07-22T06:03:25.277Z,21.20
2018-07-22T06:05:53.715Z,21.10
2018-07-22T06:08:22.046Z,21.40
2018-07-22T06:10:50.469Z,21.50
2018-07-22T06:13:18.830Z,21.50
2018-07-22T06:15:47.030Z,21.50
2018-07-22T06:18:15.256Z,21.70
2018-07-22T06:20:43.472Z,21.90
2018-07-22T06:23:11.674Z,22.10
2018-07-22T06:28:07.949Z,22.40
2018-07-22T06:30:36.375Z,22.30
2018-07-22T06:33:04.822Z,22.60
2018-07-22T06:35:33.233Z,22.60
2018-07-22T06:38:01.415Z,22.60
2018-07-22T06:40:29.717Z,22.60
2018-07-22T06:42:58.122Z,22.40
2018-07-22T06:45:26.458Z,22.30
2018-07-22T06:47:54.800Z,22.40
2018-07-22T06:50:23.198Z,22.40
2018-07-22T06:52:51.554Z,22.50
2018-07-22T06:55:19.797Z,22.70
2018-07-22T06:57:48.132Z,22.50
2018-07-22T07:00:16.500Z,22.70
2018-07-22T07:02:44.741Z,22.70
2018-07-22T07:05:13.225Z,22.80
2018-07-22T07:07:41.490Z,22.90
2018-07-22T07:10:10.016Z,23.00
2018-07-22T07:12:38.178Z,23.20
2018-07-22T07:15:06.676Z,23.50
2018-07-22T07:17:35.004Z,23.80
2018-07-22T07:20:03.281Z,23.80
2018-07-22T07:22:31.514Z,24.00
2018-07-22T07:24:59.717Z,23.90
2018-07-22T07:27:28.114Z,23.90
2018-07-22T07:29:56.337Z,23.40
2018-07-22T07:34:52.350Z,23.30
2018-07-22T07:37:20.623Z,23.00
2018-07-22T07:39:48.980Z,22.90
2018-07-22T07:42:17.664Z,22.60
2018-07-22T07:44:45.879Z,22.70
2018-07-22T07:47:14.278Z,23.00
2018-07-22T07:49:42.826Z,23.20
2018-07-22T07:52:11.290Z,23.40
2018-07-22T07:54:39.886Z,23.10
2018-07-22T07:57:08.133Z,23.30
2018-07-22T07:59:36.345Z,23.20
2018-07-22T08:02:04.612Z,23.00
2018-07-22T08:04:32.912Z,23.10
2018-07-22T08:07:01.480Z,23.10
2018-07-22T08:09:29.886Z,23.20
2018-07-22T08:11:58.256Z,23.40
2018-07-22T08:14:26.462Z,23.40
2018-07-22T08:16:54.972Z,22.90
2018-07-22T08:19:23.213Z,22.80
2018-07-22T08:21:51.623Z,23.00
2018-07-22T08:24:19.636Z,23.20
2018-07-22T08:26:47.886Z,23.40
2018-07-22T08:29:17.315Z,23.60
2018-07-22T08:31:45.553Z,23.60
2018-07-22T08:34:14.347Z,23.70
2018-07-22T08:36:42.639Z,23.90
2018-07-22T08:39:11.321Z,24.00
2018-07-22T08:41:40.027Z,24.10
2018-07-22T08:44:09.015Z,24.20
2018-07-22T08:46:37.993Z,24.20
2018-07-22T08:49:06.420Z,23.80
2018-07-22T08:51:34.750Z,23.90
2018-07-22T08:54:03.523Z,24.00
2018-07-22T08:56:32.335Z,23.80
2018-07-22T08:59:00.743Z,23.90
2018-07-22T09:01:29.924Z,24.00
2018-07-22T09:03:58.290Z,24.10
2018-07-22T09:06:27.272Z,24.10
2018-07-22T09:08:55.727Z,24.00
2018-07-22T09:11:24.257Z,24.00
2018-07-22T09:13:52.634Z,24.20
2018-07-22T09:16:20.981Z,24.10
2018-07-22T09:18:49.405Z,24.10
2018-07-22T09:21:17.722Z,23.60
2018-07-22T09:23:46.152Z,23.60
2018-07-22T09:26:14.517Z,23.70
2018-07-22T09:28:42.949Z,23.90
2018-07-22T09:31:11.272Z,24.10
2018-07-22T09:33:39.637Z,23.90
2018-07-22T09:36:07.963Z,24.10
2018-07-22T09:38:36.278Z,24.20
2018-07-22T09:41:04.664Z,24.20
2018-07-22T09:43:33.258Z,24.30
2018-07-22T09:46:01.672Z,24.50
2018-07-22T09:48:29.934Z,24.50
2018-07-22T09:50:58.299Z,24.60
2018-07-22T09:53:26.593Z,24.50
2018-07-22T09:55:55.125Z,24.50
2018-07-22T09:58:23.595Z,24.40
2018-07-22T10:00:54.203Z,24.40
2018-07-22T10:03:23.525Z,24.40
2018-07-22T10:05:51.896Z,24.60
2018-07-22T10:08:20.134Z,24.60
2018-07-22T10:10:48.574Z,24.70
2018-07-22T10:13:16.993Z,24.80
2018-07-22T10:15:45.322Z,24.30
2018-07-22T10:18:13.553Z,24.50
2018-07-22T10:20:42.078Z,24.80
2018-07-22T10:23:10.479Z,24.80
2018-07-22T10:25:38.862Z,24.80
2018-07-22T10:28:07.120Z,24.80
2018-07-22T10:30:35.676Z,24.70
2018-07-22T10:33:04.026Z,24.60
2018-07-22T10:35:32.563Z,24.90
2018-07-22T10:38:00.853Z,25.00
2018-07-22T10:40:29.295Z,25.00
2018-07-22T10:42:57.738Z,25.00
2018-07-22T10:45:25.946Z,25.00
2018-07-22T10:47:54.394Z,24.90
2018-07-22T10:50:22.713Z,25.00
2018-07-22T10:52:51.215Z,25.00
2018-07-22T10:55:19.621Z,25.20
2018-07-22T10:57:48.237Z,25.00
2018-07-22T11:00:16.510Z,24.80
2018-07-22T11:02:44.870Z,24.80
2018-07-22T11:05:13.138Z,24.70
2018-07-22T11:07:41.563Z,24.90
2018-07-22T11:10:09.832Z,24.90
2018-07-22T11:12:38.254Z,25.00
2018-07-22T11:15:06.774Z,25.00
2018-07-22T11:17:35.030Z,24.80
2018-07-22T11:20:03.317Z,25.00
2018-07-22T11:22:31.469Z,24.90
2018-07-22T11:24:59.827Z,24.90
2018-07-22T11:27:28.179Z,25.10
2018-07-22T11:29:56.472Z,25.00
2018-07-22T11:32:24.735Z,24.90
2018-07-22T11:34:52.951Z,25.20
2018-07-22T11:37:21.323Z,25.50
2018-07-22T11:39:49.570Z,25.40
2018-07-22T11:42:17.937Z,25.10
2018-07-22T11:44:46.369Z,25.30
2018-07-22T11:47:14.737Z,25.50
2018-07-22T11:49:42.990Z,25.30
2018-07-22T11:52:11.270Z,25.60
2018-07-22T11:54:39.647Z,25.50
2018-07-22T11:57:08.146Z,25.70
2018-07-22T11:59:36.355Z,25.90
2018-07-22T12:02:04.572Z,25.70
2018-07-22T12:04:32.923Z,25.80
2018-07-22T12:07:01.267Z,25.90
2018-07-22T12:09:29.648Z,26.10
2018-07-22T12:11:57.928Z,26.20
2018-07-22T12:14:26.376Z,26.00
2018-07-22T12:16:54.651Z,26.20
2018-07-22T12:19:22.967Z,26.40
2018-07-22T12:21:51.217Z,26.60
2018-07-22T12:24:19.507Z,26.60
2018-07-22T12:26:47.716Z,26.30
2018-07-22T12:29:16.082Z,26.30
2018-07-22T12:31:44.520Z,26.30
2018-07-22T12:34:12.842Z,26.40
2018-07-22T12:36:41.274Z,26.50
2018-07-22T12:39:11.872Z,26.50
2018-07-22T12:41:40.432Z,26.50
2018-07-22T12:44:09.076Z,26.30
2018-07-22T12:46:37.531Z,26.20
2018-07-22T12:49:05.852Z,26.30
2018-07-22T12:51:34.093Z,26.80
2018-07-22T12:56:30.293Z,27.30
2018-07-22T12:58:59.202Z,27.40
2018-07-22T13:01:27.737Z,27.30
2018-07-22T13:06:24.170Z,26.80
2018-07-22T13:08:52.494Z,26.60
2018-07-22T13:11:21.262Z,26.60
2018-07-22T13:13:49.768Z,26.80
2018-07-22T13:16:18.420Z,27.00
2018-07-22T13:18:46.785Z,27.30
2018-07-22T13:21:15.071Z,27.40
2018-07-22T13:23:43.352Z,27.40
2018-07-22T13:26:11.831Z,27.40
2018-07-22T13:28:40.213Z,27.30
2018-07-22T13:31:08.701Z,27.30
2018-07-22T13:33:36.996Z,26.70
2018-07-22T13:36:05.547Z,26.70
2018-07-22T13:38:33.981Z,26.90
2018-07-22T13:41:02.171Z,27.30
2018-07-22T13:43:30.455Z,27.30
2018-07-22T13:45:58.726Z,27.60
2018-07-22T13:48:27.199Z,27.60
2018-07-22T13:50:55.543Z,27.40
2018-07-22T13:53:24.212Z,27.30
2018-07-22T13:55:52.785Z,27.20
2018-07-22T13:58:21.104Z,27.50
2018-07-22T14:00:49.505Z,27.70
2018-07-22T14:03:18.767Z,27.90
2018-07-22T14:05:46.965Z,27.60
2018-07-22T14:08:15.291Z,27.50
2018-07-22T14:10:43.825Z,27.80
2018-07-22T14:13:12.048Z,28.00
2018-07-22T14:15:40.352Z,28.00
2018-07-22T14:20:36.534Z,27.80
2018-07-22T14:23:04.986Z,27.30
2018-07-22T14:25:33.459Z,27.30
2018-07-22T14:28:01.863Z,27.20
2018-07-22T14:30:30.130Z,27.60
2018-07-22T14:32:58.486Z,27.70
2018-07-22T14:35:26.675Z,27.80
2018-07-22T14:37:54.900Z,28.10
2018-07-22T14:40:23.121Z,28.20
2018-07-22T14:42:51.417Z,28.30
2018-07-22T14:45:19.897Z,28.00
2018-07-22T14:47:48.369Z,27.90
2018-07-22T14:50:16.912Z,27.90
2018-07-22T14:52:45.461Z,27.70
2018-07-22T14:55:13.719Z,27.70
2018-07-22T14:57:42.076Z,27.70
2018-07-22T15:00:10.403Z,27.90
2018-07-22T15:02:38.621Z,27.90
2018-07-22T15:05:07.003Z,28.10
2018-07-22T15:07:35.417Z,28.20
2018-07-22T15:10:03.690Z,28.30
2018-07-22T15:12:31.963Z,28.30
2018-07-22T15:15:00.140Z,28.00
2018-07-22T15:17:28.439Z,27.90
2018-07-22T15:19:56.679Z,28.00
2018-07-22T15:22:24.972Z,27.90
2018-07-22T15:24:53.314Z,27.60
2018-07-22T15:27:21.590Z,27.50
2018-07-22T15:29:50.094Z,27.70
2018-07-22T15:32:18.385Z,27.40
2018-07-22T15:34:46.650Z,27.40
2018-07-22T15:37:14.945Z,27.50
2018-07-22T15:42:11.361Z,27.40
2018-07-22T15:44:39.574Z,27.30
2018-07-22T15:47:07.780Z,27.20
2018-07-22T15:49:36.258Z,27.00
2018-07-22T15:52:04.533Z,26.90
2018-07-22T15:54:32.772Z,26.90
2018-07-22T15:57:01.262Z,26.90
2018-07-22T15:59:29.577Z,27.00
2018-07-22T16:01:58.132Z,27.00
2018-07-22T16:04:26.596Z,27.00
2018-07-22T16:06:54.964Z,27.30
2018-07-22T16:09:23.189Z,27.20
2018-07-22T16:11:51.561Z,27.20
2018-07-22T16:14:19.947Z,27.30
2018-07-22T16:16:48.324Z,27.50
2018-07-22T16:19:16.607Z,27.50
2018-07-22T16:21:45.034Z,27.40
2018-07-22T16:24:13.631Z,27.20
2018-07-22T16:26:41.983Z,27.00
2018-07-22T16:29:10.689Z,26.90
2018-07-22T16:31:39.373Z,26.80
2018-07-22T16:34:07.654Z,26.80
2018-07-22T16:36:35.922Z,26.60
2018-07-22T16:39:06.357Z,26.50
2018-07-22T16:41:34.674Z,26.60
2018-07-22T16:44:02.958Z,26.60
2018-07-22T16:46:31.286Z,26.70
2018-07-22T16:48:59.499Z,26.60
2018-07-22T16:51:27.774Z,26.40
2018-07-22T16:53:56.284Z,26.30
2018-07-22T16:56:24.522Z,26.30
2018-07-22T16:58:52.964Z,26.10
2018-07-22T17:01:21.177Z,26.00
2018-07-22T17:03:49.616Z,25.90
2018-07-22T17:06:17.845Z,26.00
2018-07-22T17:08:46.368Z,26.20
2018-07-22T17:11:14.756Z,26.20
2018-07-22T17:13:43.082Z,26.30
2018-07-22T17:16:11.335Z,26.50
2018-07-22T17:18:39.915Z,26.50
2018-07-22T17:21:08.330Z,26.50
2018-07-22T17:23:37.045Z,26.40
2018-07-22T17:26:05.406Z,26.50
2018-07-22T17:28:33.756Z,26.50
2018-07-22T17:31:02.024Z,26.50
2018-07-22T17:33:30.255Z,26.40
2018-07-22T17:35:58.909Z,26.50
2018-07-22T17:38:27.145Z,26.30
2018-07-22T17:40:55.420Z,26.20
2018-07-22T17:45:51.679Z,26.30
2018-07-22T17:48:20.097Z,26.20
2018-07-22T17:50:48.481Z,26.10
2018-07-22T17:53:16.807Z,26.00
2018-07-22T17:55:45.311Z,26.00
2018-07-22T17:58:13.680Z,25.90
2018-07-22T18:00:42.083Z,25.80
2018-07-22T18:03:14.372Z,25.60
2018-07-22T18:05:42.660Z,25.50
2018-07-22T18:08:11.100Z,25.40
2018-07-22T18:10:39.523Z,25.20
2018-07-22T18:13:08.019Z,25.20
2018-07-22T18:15:36.392Z,25.20
2018-07-22T18:18:05.115Z,25.20
2018-07-22T18:20:33.612Z,25.20
2018-07-22T18:23:02.053Z,25.30
2018-07-22T18:25:30.596Z,25.30
2018-07-22T18:27:58.841Z,25.30
2018-07-22T18:30:27.194Z,25.20
2018-07-22T18:32:55.585Z,25.10
2018-07-22T18:35:24.134Z,25.00
2018-07-22T18:37:52.702Z,25.10
2018-07-22T18:40:21.422Z,25.00
2018-07-22T18:42:50.301Z,24.90
2018-07-22T18:45:18.691Z,24.80
2018-07-22T18:47:46.969Z,24.70
2018-07-22T18:50:15.615Z,24.60
2018-07-22T18:55:12.626Z,24.40
2018-07-22T18:57:41.540Z,24.30
2018-07-22T19:00:10.433Z,24.20
2018-07-22T19:02:39.019Z,24.20
2018-07-22T19:05:07.994Z,24.20
2018-07-22T19:07:37.038Z,24.20
2018-07-22T19:10:06.103Z,24.20
2018-07-22T19:12:34.889Z,24.20
2018-07-22T19:15:03.975Z,24.20
2018-07-22T19:17:32.777Z,24.00
2018-07-22T19:20:01.902Z,23.90
2018-07-22T19:22:30.652Z,23.70
2018-07-22T19:24:59.547Z,23.60
2018-07-22T19:27:28.430Z,23.50
2018-07-22T19:29:57.219Z,23.50
2018-07-22T19:32:26.225Z,23.40
2018-07-22T19:34:55.271Z,23.40
2018-07-22T19:37:24.106Z,23.40
2018-07-22T19:39:52.911Z,23.40
2018-07-22T19:42:21.875Z,23.50
2018-07-22T19:44:50.691Z,23.50
2018-07-22T19:47:19.470Z,23.50
2018-07-22T19:52:16.228Z,23.10
2018-07-22T19:54:45.007Z,23.00
2018-07-22T19:57:13.921Z,22.80
2018-07-22T19:59:42.889Z,22.70
2018-07-22T20:02:11.662Z,22.70
2018-07-22T20:04:40.659Z,22.50
2018-07-22T20:07:09.365Z,22.50
2018-07-22T20:09:38.065Z,22.40
2018-07-22T20:12:06.834Z,22.30
2018-07-22T20:14:35.494Z,22.30
2018-07-22T20:17:04.273Z,22.30
2018-07-22T20:19:33.086Z,22.30
2018-07-22T20:22:02.010Z,22.30
2018-07-22T20:24:31.015Z,22.10
2018-07-22T20:26:59.510Z,22.00
2018-07-22T20:29:28.438Z,21.90
2018-07-22T20:34:25.399Z,21.70
2018-07-22T20:36:53.992Z,21.70
2018-07-22T20:39:22.866Z,21.50
2018-07-22T20:41:51.549Z,21.40
2018-07-22T20:44:19.983Z,21.20
2018-07-22T20:46:48.232Z,21.20
2018-07-22T20:49:16.500Z,21.20
2018-07-22T20:51:45.033Z,21.10
2018-07-22T20:54:13.462Z,21.00
2018-07-22T20:56:41.874Z,21.00
2018-07-22T20:59:10.230Z,21.00
2018-07-22T21:01:38.582Z,20.90
2018-07-22T21:04:06.786Z,20.90
2018-07-22T21:06:35.216Z,20.90
2018-07-22T21:09:03.781Z,20.90
2018-07-22T21:11:37.684Z,20.90
2018-07-22T21:14:06.058Z,20.70
2018-07-22T21:16:34.308Z,20.60
2018-07-22T21:19:02.832Z,20.50
2018-07-22T21:21:31.187Z,20.50
2018-07-22T21:23:59.707Z,20.40
2018-07-22T21:26:28.027Z,20.40
2018-07-22T21:28:56.509Z,20.30
2018-07-22T21:31:24.792Z,20.20
2018-07-22T21:33:53.386Z,20.20
2018-07-22T21:36:21.634Z,20.30
2018-07-22T21:38:50.399Z,20.20
2018-07-22T21:41:18.617Z,20.20
2018-07-22T21:43:46.841Z,20.20
2018-07-22T21:46:15.115Z,20.10
2018-07-22T21:48:43.437Z,20.00
2018-07-22T21:51:11.844Z,19.90
2018-07-22T21:53:40.165Z,19.80
2018-07-22T21:56:08.420Z,19.90
2018-07-22T21:58:36.939Z,19.90
2018-07-22T22:01:05.218Z,19.90
2018-07-22T22:03:33.473Z,19.80
2018-07-22T22:06:01.937Z,19.90
2018-07-22T22:08:30.211Z,20.00
2018-07-22T22:10:58.461Z,19.90
2018-07-22T22:13:26.678Z,19.70
2018-07-22T22:15:54.955Z,19.70
2018-07-22T22:18:23.195Z,19.80
2018-07-22T22:20:51.462Z,19.80
2018-07-22T22:23:19.620Z,19.70
2018-07-22T22:25:47.895Z,19.60
2018-07-22T22:28:16.088Z,19.50
2018-07-22T22:30:44.343Z,19.40
2018-07-22T22:33:12.639Z,19.30
2018-07-22T22:35:40.969Z,19.30
2018-07-22T22:38:09.211Z,19.30
2018-07-22T22:40:37.420Z,19.30
2018-07-22T22:43:05.742Z,19.20
2018-07-22T22:45:34.064Z,19.10
2018-07-22T22:48:02.295Z,19.10
2018-07-22T22:50:30.736Z,19.20
2018-07-22T22:52:58.982Z,19.30
2018-07-22T22:55:27.288Z,19.30
2018-07-22T22:58:01.275Z,19.20
2018-07-22T23:00:29.532Z,19.10
2018-07-22T23:02:57.930Z,19.10
2018-07-22T23:05:26.264Z,19.00
2018-07-22T23:07:54.561Z,18.90
2018-07-22T23:10:22.812Z,18.80
2018-07-22T23:12:51.098Z,18.80
2018-07-22T23:15:19.485Z,18.90
2018-07-22T23:17:47.856Z,18.90
2018-07-22T23:20:16.059Z,18.90
2018-07-22T23:22:44.548Z,19.00
2018-07-22T23:25:12.954Z,19.10
2018-07-22T23:27:41.295Z,19.10
2018-07-22T23:30:09.638Z,19.00
2018-07-22T23:32:37.961Z,18.90
2018-07-22T23:35:06.221Z,18.80
2018-07-22T23:37:34.686Z,18.70
2018-07-22T23:40:02.962Z,18.60
2018-07-22T23:42:31.194Z,18.60
2018-07-22T23:44:59.633Z,18.60
2018-07-22T23:47:28.093Z,18.80
2018-07-22T23:49:56.480Z,18.80
2018-07-22T23:52:24.778Z,18.60
2018-07-22T23:54:53.033Z,18.40
2018-07-22T23:57:21.628Z,18.30
2018-07-22T23:59:49.797Z,18.30
